createdAt,value
2022-08-04T00:02:40.148Z,14.85
2022-08-04T00:05:23.347Z,14.88
2022-08-04T00:08:08.995Z,16.95
2022-08-04T00:10:43.632Z,15.52
2022-08-04T00:13:16.566Z,13.35
2022-08-04T00:15:56.308Z,14.38
2022-08-04T00:18:33.175Z,15.45
2022-08-04T00:21:10.206Z,14.10
2022-08-04T00:24:12.336Z,15.50
2022-08-04T00:26:41.762Z,12.98
2022-08-04T00:29:14.797Z,14.30
2022-08-04T00:31:54.963Z,12.88
2022-08-04T00:34:31.768Z,13.48
2022-08-04T00:37:04.260Z,14.88
2022-08-04T00:49:23.441Z,14.68
2022-08-04T00:52:31.467Z,13.45
2022-08-04T00:55:09.286Z,17.00
2022-08-04T00:57:59.242Z,19.00
2022-08-04T01:00:36.362Z,12.48
2022-08-04T01:03:17.699Z,13.20
2022-08-04T01:06:09.892Z,12.60
2022-08-04T01:09:07.796Z,14.07
2022-08-04T01:11:57.380Z,14.95
2022-08-04T01:14:45.768Z,13.52
2022-08-04T01:17:24.523Z,13.48
2022-08-04T01:20:06.327Z,11.98
2022-08-04T01:23:22.465Z,15.45
2022-08-04T01:26:43.255Z,16.63
2022-08-04T01:29:16.858Z,13.05
2022-08-04T01:32:04.522Z,14.18
2022-08-04T01:34:45.444Z,15.75
2022-08-04T01:37:30.902Z,12.02
2022-08-04T01:40:07.139Z,14.70
2022-08-04T01:42:40.496Z,13.93
2022-08-04T01:45:16.863Z,14.07
2022-08-04T01:47:53.587Z,15.60
2022-08-04T01:50:28.168Z,14.77
2022-08-04T01:53:00.579Z,14.70
2022-08-04T01:55:55.156Z,13.38
2022-08-04T01:58:27.542Z,14.45
2022-08-04T02:01:08.062Z,15.15
2022-08-04T02:04:18.709Z,16.65
2022-08-04T02:06:44.082Z,11.68
2022-08-04T02:09:25.791Z,14.82
2022-08-04T02:12:16.100Z,14.45
2022-08-04T02:14:54.383Z,12.95
2022-08-04T02:17:34.412Z,15.45
2022-08-04T02:20:13.221Z,13.82
2022-08-04T02:22:51.212Z,15.27
2022-08-04T02:25:29.281Z,11.88
2022-08-04T02:28:26.641Z,9.75
2022-08-04T02:31:11.761Z,12.00
2022-08-04T02:33:48.342Z,11.85
2022-08-04T02:36:37.981Z,11.52
2022-08-04T02:39:12.492Z,13.45
2022-08-04T02:41:45.191Z,13.45
2022-08-04T02:44:21.952Z,11.68
2022-08-04T02:46:56.841Z,13.88
2022-08-04T02:49:33.958Z,13.38
2022-08-04T02:52:07.432Z,11.68
2022-08-04T02:54:43.543Z,11.65
2022-08-04T02:57:17.112Z,10.35
2022-08-04T03:00:03.804Z,13.93
2022-08-04T03:02:42.664Z,13.82
2022-08-04T03:05:24.881Z,12.23
2022-08-04T03:08:42.464Z,13.05
2022-08-04T03:11:31.934Z,12.88
2022-08-04T03:14:31.971Z,11.13
2022-08-04T03:17:34.783Z,11.48
2022-08-04T03:20:43.881Z,11.18
2022-08-04T03:23:45.562Z,12.15
2022-08-04T03:26:55.481Z,12.45
2022-08-04T03:29:55.562Z,12.65
2022-08-04T03:32:58.643Z,11.43
2022-08-04T03:36:02.533Z,13.45
2022-08-04T03:39:13.797Z,11.90
2022-08-04T03:42:22.814Z,14.57
2022-08-04T03:45:28.267Z,14.35
2022-08-04T03:48:36.626Z,14.75
2022-08-04T03:51:53.623Z,10.25
2022-08-04T03:55:01.254Z,11.30
2022-08-04T03:57:51.212Z,15.23
2022-08-04T04:00:24.881Z,13.07
2022-08-04T04:03:28.599Z,15.10
2022-08-04T04:06:30.811Z,11.57
2022-08-04T04:09:23.693Z,12.10
2022-08-04T04:12:25.271Z,13.45
2022-08-04T04:15:22.892Z,10.18
2022-08-04T04:18:19.213Z,11.57
2022-08-04T04:21:12.733Z,11.75
2022-08-04T04:24:06.842Z,9.52
2022-08-04T04:26:58.411Z,10.88
2022-08-04T04:30:04.713Z,12.88
2022-08-04T04:33:08.069Z,16.08
2022-08-04T04:35:52.513Z,10.02
2022-08-04T04:38:45.821Z,10.40
2022-08-04T04:41:47.240Z,11.90
2022-08-04T04:44:47.033Z,10.13
2022-08-04T04:48:03.448Z,13.10
2022-08-04T04:50:36.950Z,10.70
2022-08-04T04:53:21.482Z,11.82
2022-08-04T04:56:01.093Z,11.52
2022-08-04T04:58:37.691Z,10.05
2022-08-04T05:01:32.032Z,14.02
2022-08-04T05:04:30.640Z,14.10
2022-08-04T05:07:26.402Z,15.82
2022-08-04T05:10:10.802Z,11.02
2022-08-04T05:14:37.119Z,13.27
2022-08-04T05:16:03.682Z,12.45
2022-08-04T05:18:40.593Z,12.82
2022-08-04T05:21:41.232Z,12.65
2022-08-04T05:24:17.410Z,12.55
2022-08-04T05:26:56.922Z,12.45
2022-08-04T05:29:33.428Z,10.60
2022-08-04T05:32:30.172Z,16.45
2022-08-04T05:35:07.711Z,12.73
2022-08-04T05:37:43.890Z,9.85
2022-08-04T05:40:18.122Z,12.20
2022-08-04T05:42:55.061Z,11.73
2022-08-04T05:45:28.484Z,13.48
2022-08-04T05:48:12.244Z,10.60
2022-08-04T05:50:44.768Z,12.07
2022-08-04T05:53:19.733Z,12.15
2022-08-04T05:55:59.050Z,10.45
2022-08-04T05:58:36.221Z,10.32
2022-08-04T06:01:15.992Z,11.38
2022-08-04T06:03:53.771Z,11.52
2022-08-04T06:06:28.007Z,10.52
2022-08-04T06:09:03.202Z,14.63
2022-08-04T06:12:00.544Z,13.20
2022-08-04T06:14:45.071Z,13.45
2022-08-04T06:18:32.801Z,8.57
2022-08-04T06:20:23.150Z,17.90
2022-08-04T06:22:58.988Z,15.27
2022-08-04T06:25:35.437Z,9.13
2022-08-04T06:28:10.443Z,12.65
2022-08-04T06:30:48.064Z,11.85
2022-08-04T06:33:54.057Z,8.40
2022-08-04T06:36:25.588Z,9.65
2022-08-04T06:38:58.603Z,10.50
2022-08-04T06:41:33.404Z,9.55
2022-08-04T06:44:09.036Z,9.85
2022-08-04T06:46:46.717Z,9.98
2022-08-04T06:49:22.932Z,9.60
2022-08-04T06:51:57.222Z,8.23
2022-08-04T06:54:29.217Z,14.50
2022-08-04T06:57:02.437Z,9.35
2022-08-04T06:59:38.158Z,10.30
2022-08-04T07:02:19.133Z,6.57
2022-08-04T07:04:52.468Z,5.47
2022-08-04T07:07:37.218Z,11.45
2022-08-04T07:10:22.186Z,8.27
2022-08-04T07:16:10.313Z,9.98
2022-08-04T07:18:45.463Z,8.57
2022-08-04T07:21:27.352Z,5.30
2022-08-04T07:23:59.734Z,8.65
2022-08-04T07:26:32.496Z,10.75
2022-08-04T07:29:05.454Z,11.35
2022-08-04T07:31:38.772Z,9.43
2022-08-04T07:34:20.900Z,6.30
2022-08-04T07:36:56.375Z,6.80
2022-08-04T07:39:32.333Z,9.68
2022-08-04T07:42:23.333Z,5.90
2022-08-04T07:44:55.474Z,5.72
2022-08-04T07:47:28.485Z,7.05
2022-08-04T07:50:03.093Z,7.78
2022-08-04T07:52:39.887Z,7.88
2022-08-04T07:55:12.393Z,6.60
2022-08-04T07:57:44.890Z,8.10
2022-08-04T08:00:18.113Z,6.70
2022-08-04T08:02:54.218Z,6.32
2022-08-04T08:05:30.353Z,5.78
2022-08-04T08:08:03.454Z,8.10
2022-08-04T08:11:02.356Z,4.93
2022-08-04T08:13:42.156Z,6.25
2022-08-04T08:16:16.103Z,8.13
2022-08-04T08:18:50.236Z,9.90
2022-08-04T08:21:26.503Z,6.60
2022-08-04T08:23:59.065Z,8.00
2022-08-04T08:26:31.265Z,7.07
2022-08-04T08:29:03.903Z,7.60
2022-08-04T08:31:57.403Z,5.45
2022-08-04T08:34:32.076Z,5.13
2022-08-04T08:37:15.802Z,6.47
2022-08-04T08:39:57.324Z,6.53
2022-08-04T08:42:56.904Z,9.70
2022-08-04T08:45:51.803Z,11.73
2022-08-04T08:48:55.576Z,21.27
2022-08-04T08:51:48.093Z,10.50
2022-08-04T08:54:41.588Z,13.45
2022-08-04T08:57:31.715Z,8.30
2022-08-04T09:00:12.322Z,10.88
2022-08-04T09:03:34.780Z,4.82
2022-08-04T09:06:22.161Z,10.10
2022-08-04T09:09:15.769Z,7.80
2022-08-04T09:11:59.385Z,8.13
2022-08-04T09:14:40.567Z,10.38
2022-08-04T09:17:29.983Z,11.23
2022-08-04T09:20:07.394Z,8.68
2022-08-04T09:22:47.403Z,5.82
2022-08-04T09:25:25.885Z,8.32
2022-08-04T09:28:09.458Z,10.95
2022-08-04T09:30:48.863Z,12.43
2022-08-04T09:33:45.340Z,8.27
2022-08-04T09:36:31.830Z,7.70
2022-08-04T09:39:13.123Z,4.95
2022-08-04T09:42:09.999Z,7.28
2022-08-04T09:45:03.399Z,7.53
2022-08-04T09:47:47.949Z,8.48
2022-08-04T09:50:35.584Z,6.10
2022-08-04T09:53:24.225Z,7.22
2022-08-04T09:56:14.264Z,5.10
2022-08-04T09:59:10.823Z,4.90
2022-08-04T10:01:59.767Z,6.20
2022-08-04T10:04:35.505Z,9.63
2022-08-04T10:07:37.385Z,6.05
2022-08-04T10:10:37.945Z,3.83
2022-08-04T10:13:30.143Z,6.13
2022-08-04T10:16:15.129Z,6.28
2022-08-04T10:19:08.615Z,5.47
2022-08-04T10:22:21.319Z,4.15
2022-08-04T10:25:05.625Z,8.07
2022-08-04T10:28:02.707Z,4.28
2022-08-04T10:30:40.087Z,3.22
2022-08-04T10:33:21.607Z,3.03
2022-08-04T10:36:03.613Z,8.73
2022-08-04T10:38:42.346Z,5.60
2022-08-04T10:41:21.034Z,6.68
2022-08-04T10:44:07.615Z,4.07
2022-08-04T10:46:47.507Z,5.10
2022-08-04T10:49:27.206Z,6.40
2022-08-04T10:52:15.086Z,6.95
2022-08-04T10:54:55.947Z,6.15
2022-08-04T10:57:37.173Z,6.28
2022-08-04T11:00:13.988Z,3.83
2022-08-04T11:02:54.516Z,9.02
2022-08-04T11:05:34.607Z,4.82
2022-08-04T11:08:22.026Z,6.38
2022-08-04T11:11:05.427Z,5.90
2022-08-04T11:13:47.139Z,5.65
2022-08-04T11:16:25.927Z,5.07
2022-08-04T11:19:10.490Z,7.68
2022-08-04T11:21:48.905Z,7.85
2022-08-04T11:24:30.287Z,3.83
2022-08-04T11:27:05.428Z,5.75
2022-08-04T11:29:45.506Z,3.45
2022-08-04T11:32:24.140Z,6.88
2022-08-04T11:35:01.164Z,5.78
2022-08-04T11:37:45.147Z,3.65
2022-08-04T11:40:27.247Z,5.43
2022-08-04T11:43:04.768Z,5.35
2022-08-04T11:45:42.148Z,5.53
2022-08-04T11:48:20.948Z,4.53
2022-08-04T11:50:57.027Z,6.18
2022-08-04T11:53:36.682Z,5.53
2022-08-04T11:56:37.025Z,4.13
2022-08-04T11:59:11.407Z,6.18
2022-08-04T12:02:05.911Z,7.60
2022-08-04T12:04:50.727Z,5.45
2022-08-04T12:07:35.380Z,5.80
2022-08-04T12:10:37.913Z,4.88
2022-08-04T12:13:31.545Z,4.95
2022-08-04T12:16:14.453Z,3.33
2022-08-04T12:18:53.779Z,3.50
2022-08-04T12:21:35.061Z,6.72
2022-08-04T12:24:17.514Z,3.70
2022-08-04T12:26:56.815Z,3.92
2022-08-04T12:29:38.753Z,8.10
2022-08-04T12:32:21.937Z,4.80
2022-08-04T12:35:06.754Z,7.20
2022-08-04T12:37:50.515Z,6.03
2022-08-04T12:40:31.254Z,4.65
2022-08-04T12:43:13.835Z,5.20
2022-08-04T12:45:53.712Z,5.35
2022-08-04T12:48:27.543Z,5.10
2022-08-04T12:51:02.203Z,4.95
2022-08-04T12:53:51.073Z,5.38
2022-08-04T12:56:39.694Z,4.28
2022-08-04T12:59:15.195Z,5.07
2022-08-04T13:02:06.929Z,3.55
2022-08-04T13:04:50.356Z,8.10
2022-08-04T13:07:27.892Z,5.15
2022-08-04T13:10:03.910Z,4.28
2022-08-04T13:12:37.609Z,5.72
2022-08-04T13:15:17.900Z,4.28
2022-08-04T13:18:00.111Z,5.32
2022-08-04T13:20:35.250Z,4.53
2022-08-04T13:23:09.922Z,5.57
2022-08-04T13:26:42.684Z,3.97
2022-08-04T13:28:44.309Z,4.68
2022-08-04T13:31:20.230Z,4.72
2022-08-04T13:33:57.731Z,5.20
2022-08-04T13:36:32.330Z,5.45
2022-08-04T13:39:10.173Z,5.65
2022-08-04T13:41:47.189Z,9.43
2022-08-04T13:44:33.630Z,6.60
2022-08-04T13:47:14.473Z,4.72
2022-08-04T13:50:11.632Z,7.40
2022-08-04T13:52:46.311Z,2.30
2022-08-04T13:55:28.007Z,5.18
2022-08-04T13:58:05.617Z,3.13
2022-08-04T14:00:57.728Z,3.40
2022-08-04T14:03:53.530Z,5.18
2022-08-04T14:06:35.191Z,5.53
2022-08-04T14:09:18.072Z,3.47
2022-08-04T14:12:09.635Z,4.38
2022-08-04T14:14:49.993Z,2.58
2022-08-04T14:17:30.564Z,2.95
2022-08-04T14:20:05.471Z,5.43
2022-08-04T14:22:40.895Z,2.80
2022-08-04T14:25:15.338Z,5.25
2022-08-04T14:27:51.497Z,3.90
2022-08-04T14:30:32.085Z,5.13
2022-08-04T14:34:02.664Z,4.20
2022-08-04T14:36:04.596Z,3.67
2022-08-04T14:39:00.366Z,19.45
2022-08-04T14:41:47.169Z,4.60
2022-08-04T14:44:19.951Z,2.53
2022-08-04T14:46:57.893Z,3.10
2022-08-04T14:49:29.930Z,4.50
2022-08-04T14:52:03.851Z,3.60
2022-08-04T14:54:39.310Z,3.03
2022-08-04T14:57:12.390Z,3.05
2022-08-04T15:00:00.652Z,4.28
2022-08-04T15:02:36.493Z,3.63
2022-08-04T15:06:00.358Z,3.45
2022-08-04T15:08:01.750Z,6.18
2022-08-04T15:10:44.569Z,4.30
2022-08-04T15:13:21.072Z,6.82
2022-08-04T15:16:06.468Z,2.97
2022-08-04T15:18:41.200Z,4.20
2022-08-04T15:21:14.308Z,4.47
2022-08-04T15:23:46.493Z,3.53
2022-08-04T15:26:29.411Z,4.25
2022-08-04T15:29:06.368Z,4.90
2022-08-04T15:32:05.881Z,3.08
2022-08-04T15:34:48.555Z,5.78
2022-08-04T15:37:30.570Z,8.85
2022-08-04T15:40:10.811Z,3.38
2022-08-04T15:42:50.820Z,4.55
2022-08-04T15:46:33.220Z,3.50
2022-08-04T15:48:29.633Z,4.63
2022-08-04T15:51:15.496Z,5.35
2022-08-04T15:54:27.935Z,7.63
2022-08-04T15:57:05.115Z,3.72
2022-08-04T16:00:14.457Z,3.10
2022-08-04T16:02:47.486Z,6.75
2022-08-04T16:05:40.685Z,5.97
2022-08-04T16:08:21.792Z,4.82
2022-08-04T16:10:57.291Z,2.85
2022-08-04T16:13:29.850Z,2.60
2022-08-04T16:16:04.532Z,5.32
2022-08-04T16:18:44.851Z,2.60
2022-08-04T16:21:27.090Z,3.83
2022-08-04T16:24:24.591Z,4.25
2022-08-04T16:26:58.491Z,4.18
2022-08-04T16:29:38.184Z,3.88
2022-08-04T16:32:24.623Z,3.22
2022-08-04T16:35:00.359Z,4.95
2022-08-04T16:37:38.011Z,5.47
2022-08-04T16:40:36.339Z,4.47
2022-08-04T16:43:13.204Z,3.00
2022-08-04T16:45:51.838Z,4.82
2022-08-04T16:48:28.127Z,3.08
2022-08-04T16:51:05.593Z,6.47
2022-08-04T16:53:53.650Z,7.03
2022-08-04T16:56:36.040Z,3.15
2022-08-04T16:59:12.378Z,3.90
2022-08-04T17:01:50.678Z,3.42
2022-08-04T17:04:32.826Z,4.68
2022-08-04T17:07:09.088Z,2.95
2022-08-04T17:09:41.227Z,5.28
2022-08-04T17:12:14.325Z,4.97
2022-08-04T17:14:47.649Z,4.43
2022-08-04T17:18:05.715Z,4.55
2022-08-04T17:21:00.847Z,3.80
2022-08-04T17:24:14.953Z,5.43
2022-08-04T17:26:39.501Z,3.90
2022-08-04T17:29:12.397Z,4.05
2022-08-04T17:31:53.335Z,6.25
2022-08-04T17:34:26.952Z,9.20
2022-08-04T17:37:40.086Z,6.05
2022-08-04T17:40:11.491Z,11.73
2022-08-04T17:42:45.287Z,7.32
2022-08-04T17:48:24.431Z,7.72
2022-08-04T17:50:57.749Z,8.15
2022-08-04T17:54:01.451Z,6.93
2022-08-04T17:56:34.650Z,8.98
2022-08-04T17:59:52.341Z,7.63
2022-08-04T18:02:33.299Z,4.85
2022-08-04T18:05:12.374Z,3.65
2022-08-04T18:08:45.776Z,5.18
2022-08-04T18:10:55.401Z,4.90
2022-08-04T18:13:30.063Z,7.72
2022-08-04T18:16:22.210Z,8.82
2022-08-04T18:19:13.769Z,5.32
2022-08-04T18:22:00.012Z,5.38
2022-08-04T18:24:56.237Z,6.68
2022-08-04T18:27:30.202Z,5.40
2022-08-04T18:30:31.164Z,5.65
2022-08-04T18:33:10.580Z,7.57
2022-08-04T18:36:33.516Z,5.32
2022-08-04T18:38:59.027Z,6.43
2022-08-04T18:42:03.797Z,6.28
2022-08-04T18:44:29.535Z,8.68
2022-08-04T18:47:19.322Z,9.25
2022-08-04T18:52:57.388Z,9.57
2022-08-04T18:58:27.298Z,12.15
2022-08-04T19:01:02.759Z,8.57
2022-08-04T19:03:52.280Z,8.88
2022-08-04T19:06:27.459Z,12.85
2022-08-04T19:09:00.784Z,10.68
2022-08-04T19:11:37.921Z,11.63
2022-08-04T19:14:13.758Z,12.23
2022-08-04T19:16:49.847Z,8.02
2022-08-04T19:19:22.526Z,11.85
2022-08-04T19:25:07.505Z,11.05
2022-08-04T19:27:41.366Z,9.15
2022-08-04T19:30:14.187Z,11.48
2022-08-04T19:32:52.200Z,14.73
2022-08-04T19:35:24.782Z,14.30
2022-08-04T19:38:03.914Z,11.90
2022-08-04T19:40:36.864Z,11.23
2022-08-04T19:43:15.375Z,12.65
2022-08-04T19:45:48.201Z,13.63
2022-08-04T19:48:25.358Z,9.77
2022-08-04T19:51:00.001Z,10.38
2022-08-04T19:53:37.335Z,10.35
2022-08-04T19:56:11.143Z,11.25
2022-08-04T19:58:47.469Z,10.52
2022-08-04T20:01:33.586Z,9.48
2022-08-04T20:04:15.924Z,10.77
2022-08-04T20:06:48.263Z,8.82
2022-08-04T20:09:25.773Z,9.88
2022-08-04T20:12:12.736Z,8.70
2022-08-04T20:14:48.261Z,7.80
2022-08-04T20:17:20.476Z,9.43
2022-08-04T20:20:16.096Z,8.52
2022-08-04T20:22:52.636Z,9.38
2022-08-04T20:25:36.987Z,8.88
2022-08-04T20:28:10.443Z,8.85
2022-08-04T20:31:02.023Z,7.95
2022-08-04T20:33:34.237Z,6.72
2022-08-04T20:36:26.286Z,9.57
2022-08-04T20:38:58.427Z,7.45
2022-08-04T20:41:36.688Z,6.78
2022-08-04T20:44:11.035Z,9.02
2022-08-04T20:46:46.025Z,7.90
2022-08-04T20:49:18.424Z,9.60
2022-08-04T20:51:53.137Z,7.80
2022-08-04T20:54:26.588Z,8.65
2022-08-04T20:56:59.657Z,5.68
2022-08-04T20:59:32.026Z,6.03
2022-08-04T21:02:08.782Z,8.23
2022-08-04T21:04:51.095Z,8.30
2022-08-04T21:07:26.165Z,8.85
2022-08-04T21:09:59.875Z,10.68
2022-08-04T21:12:31.517Z,10.05
2022-08-04T21:15:13.329Z,9.48
2022-08-04T21:17:58.777Z,10.88
2022-08-04T21:20:43.183Z,9.68
2022-08-04T21:23:20.632Z,8.73
2022-08-04T21:25:59.453Z,6.35
2022-08-04T21:28:31.054Z,6.82
2022-08-04T21:31:11.390Z,8.48
2022-08-04T21:33:54.033Z,8.57
2022-08-04T21:36:27.494Z,6.15
2022-08-04T21:39:02.894Z,12.10
2022-08-04T21:41:49.177Z,12.55
2022-08-04T21:44:26.767Z,11.50
2022-08-04T21:46:59.696Z,10.40
2022-08-04T21:49:31.236Z,10.10
2022-08-04T21:54:57.378Z,9.63
2022-08-04T21:57:32.631Z,8.90
2022-08-04T22:00:23.549Z,11.07
2022-08-04T22:02:57.195Z,6.95
2022-08-04T22:05:29.065Z,9.35
2022-08-04T22:08:04.646Z,7.30
2022-08-04T22:10:39.074Z,7.45
2022-08-04T22:13:22.575Z,10.23
2022-08-04T22:16:05.123Z,11.00
2022-08-04T22:18:46.152Z,8.32
2022-08-04T22:21:19.220Z,7.88
2022-08-04T22:23:56.549Z,7.07
2022-08-04T22:26:34.339Z,6.68
2022-08-04T22:29:07.189Z,8.32
2022-08-04T22:31:53.320Z,7.65
2022-08-04T22:34:30.379Z,10.05
2022-08-04T22:37:14.742Z,9.73
2022-08-04T22:39:56.557Z,8.82
2022-08-04T22:42:31.764Z,9.15
2022-08-04T22:45:04.210Z,7.15
2022-08-04T22:47:40.129Z,8.63
2022-08-04T22:50:27.045Z,10.38
2022-08-04T22:53:01.120Z,8.18
2022-08-04T22:55:57.502Z,7.35
2022-08-04T22:58:28.860Z,8.50
2022-08-04T23:01:01.224Z,8.02
2022-08-04T23:03:38.568Z,7.53
2022-08-04T23:06:13.610Z,7.13
2022-08-04T23:09:16.205Z,7.35
2022-08-04T23:12:27.538Z,8.70
2022-08-04T23:15:03.015Z,7.95
2022-08-04T23:17:44.004Z,7.72
2022-08-04T23:20:23.350Z,7.15
2022-08-04T23:23:15.021Z,8.60
2022-08-04T23:26:07.845Z,5.97
2022-08-04T23:28:41.148Z,6.22
2022-08-04T23:31:17.714Z,6.53
2022-08-04T23:33:51.815Z,6.00
2022-08-04T23:36:29.497Z,7.13
2022-08-04T23:39:08.200Z,7.90
2022-08-04T23:41:54.701Z,6.60
2022-08-04T23:44:29.568Z,11.10
2022-08-04T23:47:06.657Z,11.75
2022-08-04T23:49:43.670Z,6.47
2022-08-04T23:52:28.090Z,7.28
2022-08-04T23:55:02.996Z,7.03
2022-08-04T23:58:16.886Z,8.18
